createdAt,value
2018-03-29T00:00:28.411Z,7.33
2018-03-29T00:02:55.957Z,7.27
2018-03-29T00:05:23.633Z,7.37
2018-03-29T00:07:52.077Z,7.27
2018-03-29T00:10:19.783Z,7.48
2018-03-29T00:12:47.432Z,7.36
2018-03-29T00:15:14.977Z,7.39
2018-03-29T00:17:42.665Z,7.42
2018-03-29T00:20:10.546Z,7.34
2018-03-29T00:22:38.235Z,7.07
2018-03-29T00:25:05.992Z,7.10
2018-03-29T00:27:33.587Z,7.15
2018-03-29T00:30:01.833Z,7.23
2018-03-29T00:32:30.095Z,7.33
2018-03-29T00:34:57.793Z,7.34
2018-03-29T00:37:25.432Z,7.12
2018-03-29T00:39:53.121Z,7.10
2018-03-29T00:42:20.845Z,6.96
2018-03-29T00:44:48.406Z,6.94
2018-03-29T00:47:16.110Z,7.07
2018-03-29T00:49:43.847Z,7.05
2018-03-29T00:52:11.807Z,7.17
2018-03-29T00:54:39.646Z,7.13
2018-03-29T00:57:07.192Z,7.18
2018-03-29T00:59:35.314Z,7.11
2018-03-29T01:02:03.452Z,7.15
2018-03-29T01:04:31.012Z,7.24
2018-03-29T01:06:58.656Z,7.18
2018-03-29T01:09:26.428Z,7.08
2018-03-29T01:11:53.922Z,7.08
2018-03-29T01:14:21.532Z,6.94
2018-03-29T01:16:49.313Z,6.83
2018-03-29T01:19:16.966Z,6.84
2018-03-29T01:21:44.693Z,6.75
2018-03-29T01:24:12.552Z,6.80
2018-03-29T01:26:40.687Z,6.69
2018-03-29T01:29:08.255Z,6.65
2018-03-29T01:31:35.953Z,6.44
2018-03-29T01:34:03.793Z,6.33
2018-03-29T01:36:31.718Z,6.37
2018-03-29T01:38:59.397Z,6.20
2018-03-29T01:41:28.229Z,6.11
2018-03-29T01:43:55.959Z,6.15
2018-03-29T01:46:23.502Z,6.14
2018-03-29T01:48:51.074Z,6.27
2018-03-29T01:51:18.722Z,6.25
2018-03-29T01:53:46.554Z,6.27
2018-03-29T01:56:14.252Z,6.29
2018-03-29T01:58:41.783Z,6.30
2018-03-29T02:01:09.767Z,6.44
2018-03-29T02:03:37.292Z,6.26
2018-03-29T02:06:04.914Z,6.23
2018-03-29T02:08:33.465Z,6.28
2018-03-29T02:11:01.049Z,6.29
2018-03-29T02:13:28.819Z,6.17
2018-03-29T02:15:56.527Z,6.10
2018-03-29T02:18:24.178Z,6.14
2018-03-29T02:20:51.823Z,5.99
2018-03-29T02:23:19.352Z,6.09
2018-03-29T02:25:47.032Z,6.04
2018-03-29T02:28:15.613Z,5.88
2018-03-29T02:30:43.137Z,5.81
2018-03-29T02:33:10.950Z,5.78
2018-03-29T02:35:38.611Z,5.87
2018-03-29T02:38:06.483Z,5.65
2018-03-29T02:40:34.137Z,5.59
2018-03-29T02:43:01.788Z,5.64
2018-03-29T02:45:29.783Z,5.55
2018-03-29T02:47:57.944Z,5.46
2018-03-29T02:50:25.569Z,5.33
2018-03-29T02:52:53.114Z,5.41
2018-03-29T02:55:20.647Z,5.47
2018-03-29T02:57:48.261Z,5.50
2018-03-29T03:00:16.505Z,5.46
2018-03-29T03:02:44.207Z,5.45
2018-03-29T03:05:11.748Z,5.54
2018-03-29T03:07:39.364Z,5.50
2018-03-29T03:10:07.004Z,5.61
2018-03-29T03:12:34.602Z,5.49
2018-03-29T03:15:02.137Z,5.48
2018-03-29T03:17:30.767Z,5.32
2018-03-29T03:19:58.408Z,5.29
2018-03-29T03:22:26.107Z,5.34
2018-03-29T03:24:53.884Z,5.25
2018-03-29T03:27:21.517Z,5.16
2018-03-29T03:29:49.107Z,5.13
2018-03-29T03:32:16.634Z,5.11
2018-03-29T03:34:44.544Z,4.80
2018-03-29T03:37:12.177Z,4.69
2018-03-29T03:39:39.713Z,4.69
2018-03-29T03:42:07.584Z,4.64
2018-03-29T03:44:35.151Z,4.35
2018-03-29T03:47:03.087Z,4.29
2018-03-29T03:49:31.207Z,4.17
2018-03-29T03:51:58.811Z,4.04
2018-03-29T03:54:26.388Z,3.99
2018-03-29T03:56:53.906Z,3.91
2018-03-29T03:59:21.557Z,4.06
2018-03-29T04:01:49.147Z,4.14
2018-03-29T04:04:16.778Z,4.28
2018-03-29T04:06:44.674Z,4.17
2018-03-29T04:09:13.304Z,4.12
2018-03-29T04:11:40.967Z,4.07
2018-03-29T04:14:08.538Z,3.89
2018-03-29T04:16:36.173Z,3.21
2018-03-29T04:19:04.107Z,3.16
2018-03-29T04:21:32.267Z,2.86
2018-03-29T04:23:59.992Z,2.84
2018-03-29T04:26:27.597Z,2.70
2018-03-29T04:28:55.632Z,2.40
2018-03-29T04:31:23.195Z,2.31
2018-03-29T04:33:50.822Z,2.30
2018-03-29T04:36:18.737Z,2.09
2018-03-29T04:38:46.338Z,2.34
2018-03-29T04:41:14.079Z,2.72
2018-03-29T04:43:41.792Z,2.58
2018-03-29T04:46:10.001Z,2.29
2018-03-29T04:48:37.628Z,2.11
2018-03-29T04:51:05.395Z,2.01
2018-03-29T04:53:33.055Z,2.47
2018-03-29T04:56:00.605Z,2.68
2018-03-29T04:58:28.382Z,2.54
2018-03-29T05:00:56.011Z,2.67
2018-03-29T05:03:23.803Z,2.68
2018-03-29T05:05:51.659Z,2.74
2018-03-29T05:08:19.193Z,2.79
2018-03-29T05:10:46.733Z,2.90
2018-03-29T05:13:14.389Z,2.78
2018-03-29T05:15:41.934Z,2.70
2018-03-29T05:18:09.723Z,2.71
2018-03-29T05:20:37.342Z,2.95
2018-03-29T05:23:04.962Z,3.40
2018-03-29T05:25:35.148Z,3.40
2018-03-29T05:28:02.824Z,3.17
2018-03-29T05:30:30.642Z,2.97
2018-03-29T05:32:59.085Z,2.76
2018-03-29T05:35:26.805Z,2.64
2018-03-29T05:37:54.420Z,2.65
2018-03-29T05:40:22.098Z,2.51
2018-03-29T05:42:49.660Z,2.39
2018-03-29T05:45:17.218Z,2.57
2018-03-29T05:47:44.763Z,2.81
2018-03-29T05:50:12.289Z,3.05
2018-03-29T05:52:40.210Z,3.33
2018-03-29T05:55:07.828Z,3.37
2018-03-29T05:57:35.474Z,3.29
2018-03-29T06:00:03.109Z,3.24
2018-03-29T06:02:30.790Z,3.37
2018-03-29T06:04:58.440Z,3.96
2018-03-29T06:07:26.129Z,4.61
2018-03-29T06:09:54.433Z,4.68
2018-03-29T06:12:22.008Z,4.59
2018-03-29T06:14:49.546Z,4.43
2018-03-29T06:17:22.710Z,4.64
2018-03-29T06:19:50.380Z,4.96
2018-03-29T06:22:18.304Z,4.84
2018-03-29T06:24:45.915Z,4.59
2018-03-29T06:27:13.526Z,4.72
2018-03-29T06:29:41.175Z,4.73
2018-03-29T06:32:08.866Z,5.52
2018-03-29T06:34:36.596Z,5.56
2018-03-29T06:37:04.540Z,6.01
2018-03-29T06:39:32.089Z,6.11
2018-03-29T06:41:59.760Z,6.17
2018-03-29T06:44:27.320Z,5.97
2018-03-29T06:46:55.255Z,6.19
2018-03-29T06:49:22.835Z,6.32
2018-03-29T06:51:50.804Z,6.88
2018-03-29T06:54:18.536Z,7.58
2018-03-29T06:56:46.200Z,7.76
2018-03-29T06:59:13.944Z,8.21
2018-03-29T07:01:41.552Z,8.91
2018-03-29T07:04:10.408Z,8.12
2018-03-29T07:06:38.002Z,7.55
2018-03-29T07:09:06.029Z,7.52
2018-03-29T07:11:33.574Z,7.92
2018-03-29T07:14:01.276Z,7.67
2018-03-29T07:16:28.860Z,7.82
2018-03-29T07:18:56.499Z,8.36
2018-03-29T07:21:24.227Z,8.42
2018-03-29T07:23:51.987Z,8.89
2018-03-29T07:26:19.706Z,8.98
2018-03-29T07:28:47.359Z,8.67
2018-03-29T07:31:14.966Z,8.82
2018-03-29T07:33:42.640Z,8.26
2018-03-29T07:36:10.240Z,9.02
2018-03-29T07:38:37.791Z,9.89
2018-03-29T07:41:05.361Z,9.45
2018-03-29T07:43:32.927Z,9.23
2018-03-29T07:46:00.676Z,9.34
2018-03-29T07:48:28.221Z,9.76
2018-03-29T07:50:55.901Z,9.89
2018-03-29T07:53:23.637Z,9.43
2018-03-29T07:55:51.380Z,9.28
2018-03-29T07:58:20.052Z,10.49
2018-03-29T08:00:47.969Z,11.38
2018-03-29T08:03:15.581Z,12.65
2018-03-29T08:05:43.200Z,11.41
2018-03-29T08:08:10.931Z,11.91
2018-03-29T08:10:38.541Z,11.45
2018-03-29T08:13:06.935Z,11.58
2018-03-29T08:15:34.501Z,10.96
2018-03-29T08:18:02.756Z,12.67
2018-03-29T08:20:30.332Z,11.52
2018-03-29T08:22:57.916Z,12.61
2018-03-29T08:25:25.542Z,12.59
2018-03-29T08:27:53.212Z,12.58
2018-03-29T08:30:20.810Z,12.52
2018-03-29T08:32:49.311Z,11.93
2018-03-29T08:35:17.058Z,12.20
2018-03-29T08:37:44.802Z,12.35
2018-03-29T08:40:12.472Z,13.28
2018-03-29T08:42:40.072Z,12.07
2018-03-29T08:45:07.858Z,12.32
2018-03-29T08:47:35.445Z,12.33
2018-03-29T08:50:03.283Z,12.86
2018-03-29T08:52:31.016Z,13.49
2018-03-29T08:54:58.797Z,14.49
2018-03-29T08:57:26.647Z,14.05
2018-03-29T08:59:54.497Z,14.30
2018-03-29T09:02:22.400Z,14.21
2018-03-29T09:04:50.068Z,13.37
2018-03-29T09:07:17.732Z,12.85
2018-03-29T09:09:45.475Z,13.31
2018-03-29T09:12:13.307Z,12.65
2018-03-29T09:14:40.871Z,13.38
2018-03-29T09:17:08.736Z,15.97
2018-03-29T09:19:36.368Z,15.86
2018-03-29T09:22:04.155Z,12.95
2018-03-29T09:24:31.711Z,11.82
2018-03-29T09:26:59.363Z,13.38
2018-03-29T09:29:26.915Z,14.34
2018-03-29T09:31:54.551Z,15.86
2018-03-29T09:34:22.503Z,12.31
2018-03-29T09:36:50.295Z,13.63
2018-03-29T09:39:18.060Z,15.74
2018-03-29T09:41:45.816Z,14.86
2018-03-29T09:44:13.492Z,14.12
2018-03-29T09:46:41.088Z,12.29
2018-03-29T09:49:08.657Z,12.57
2018-03-29T09:51:36.281Z,12.86
2018-03-29T09:54:03.846Z,12.08
2018-03-29T09:56:31.560Z,12.61
2018-03-29T09:58:59.221Z,14.54
2018-03-29T10:01:27.063Z,15.32
2018-03-29T10:04:00.336Z,13.26
2018-03-29T10:06:27.966Z,14.42
2018-03-29T10:08:55.573Z,17.03
2018-03-29T10:11:23.275Z,15.30
2018-03-29T10:13:50.807Z,15.47
2018-03-29T10:16:18.441Z,15.98
2018-03-29T10:18:45.992Z,18.40
2018-03-29T10:21:13.733Z,16.47
2018-03-29T10:23:42.277Z,17.63
2018-03-29T10:26:10.071Z,16.45
2018-03-29T10:28:38.404Z,16.87
2018-03-29T10:31:06.005Z,15.71
2018-03-29T10:33:34.358Z,14.79
2018-03-29T10:36:02.527Z,14.65
2018-03-29T10:38:30.107Z,11.76
2018-03-29T10:40:57.727Z,13.92
2018-03-29T10:43:25.700Z,14.67
2018-03-29T10:45:53.367Z,14.76
2018-03-29T10:48:21.038Z,15.58
2018-03-29T10:50:48.674Z,15.70
2018-03-29T10:53:17.462Z,15.04
2018-03-29T10:55:45.257Z,15.63
2018-03-29T10:58:13.830Z,15.06
2018-03-29T11:00:41.983Z,13.76
2018-03-29T11:03:10.934Z,13.81
2018-03-29T11:05:40.104Z,13.96
2018-03-29T11:08:08.440Z,15.02
2018-03-29T11:10:36.266Z,15.33
2018-03-29T11:13:04.275Z,16.20
2018-03-29T11:15:32.361Z,15.12
2018-03-29T11:18:00.137Z,15.24
2018-03-29T11:20:28.204Z,16.64
2018-03-29T11:22:56.508Z,16.65
2018-03-29T11:25:24.445Z,16.18
2018-03-29T11:27:52.290Z,15.42
2018-03-29T11:30:20.152Z,16.75
2018-03-29T11:32:48.347Z,15.71
2018-03-29T11:35:16.288Z,15.29
2018-03-29T11:37:44.328Z,17.00
2018-03-29T11:40:12.422Z,16.05
2018-03-29T11:42:41.377Z,16.21
2018-03-29T11:45:11.143Z,13.95
2018-03-29T11:47:39.101Z,13.57
2018-03-29T11:50:07.163Z,12.77
2018-03-29T11:52:35.423Z,14.87
2018-03-29T11:55:03.582Z,13.89
2018-03-29T11:57:32.268Z,16.25
2018-03-29T12:00:00.223Z,15.11
2018-03-29T12:02:29.022Z,17.51
2018-03-29T12:04:57.038Z,17.21
2018-03-29T12:07:26.418Z,18.55
2018-03-29T12:09:54.885Z,18.82
2018-03-29T12:12:23.078Z,18.62
2018-03-29T12:14:51.293Z,19.16
2018-03-29T12:17:19.211Z,17.39
2018-03-29T12:19:47.031Z,16.39
2018-03-29T12:22:14.790Z,17.29
2018-03-29T12:24:42.532Z,17.92
2018-03-29T12:27:10.616Z,18.08
2018-03-29T12:29:38.691Z,17.97
2018-03-29T12:32:06.467Z,18.20
2018-03-29T12:34:34.753Z,17.43
2018-03-29T12:37:02.703Z,16.77
2018-03-29T12:39:31.118Z,17.29
2018-03-29T12:41:58.882Z,20.09
2018-03-29T12:44:26.794Z,21.68
2018-03-29T12:46:54.585Z,20.26
2018-03-29T12:49:22.292Z,22.09
2018-03-29T12:51:50.225Z,19.28
2018-03-29T12:54:18.076Z,18.55
2018-03-29T12:56:57.870Z,16.63
2018-03-29T12:59:25.670Z,16.15
2018-03-29T13:01:53.947Z,15.30
2018-03-29T13:04:21.894Z,13.73
2018-03-29T13:06:49.550Z,15.86
2018-03-29T13:09:17.236Z,14.57
2018-03-29T13:11:44.804Z,14.27
2018-03-29T13:14:12.561Z,13.76
2018-03-29T13:16:40.938Z,12.98
2018-03-29T13:19:08.487Z,13.94
2018-03-29T13:21:36.178Z,14.70
2018-03-29T13:24:04.029Z,14.69
2018-03-29T13:26:31.619Z,14.81
2018-03-29T13:28:59.512Z,15.42
2018-03-29T13:31:27.188Z,15.57
2018-03-29T13:33:54.857Z,15.74
2018-03-29T13:36:22.634Z,15.82
2018-03-29T13:38:50.167Z,14.98
2018-03-29T13:41:17.839Z,14.75
2018-03-29T13:43:45.471Z,13.58
2018-03-29T13:46:13.334Z,13.48
2018-03-29T13:48:41.006Z,13.75
2018-03-29T13:51:08.714Z,13.93
2018-03-29T13:53:37.443Z,14.03
2018-03-29T13:56:05.156Z,14.49
2018-03-29T13:58:33.338Z,13.59
2018-03-29T14:01:00.999Z,13.66
2018-03-29T14:03:28.855Z,13.66
2018-03-29T14:05:57.408Z,13.01
2018-03-29T14:08:25.204Z,12.82
2018-03-29T14:10:52.800Z,12.65
2018-03-29T14:13:20.499Z,12.84
2018-03-29T14:15:49.083Z,12.87
2018-03-29T14:18:16.891Z,13.15
2018-03-29T14:20:44.599Z,13.23
2018-03-29T14:23:12.157Z,13.42
2018-03-29T14:25:39.954Z,13.30
2018-03-29T14:28:07.488Z,13.23
2018-03-29T14:30:35.284Z,13.05
2018-03-29T14:33:02.941Z,13.17
2018-03-29T14:35:30.794Z,13.20
2018-03-29T14:37:59.032Z,12.99
2018-03-29T14:40:26.594Z,13.29
2018-03-29T14:42:55.173Z,12.93
2018-03-29T14:45:22.906Z,12.97
2018-03-29T14:47:50.608Z,12.94
2018-03-29T14:50:18.419Z,12.33
2018-03-29T14:52:46.093Z,12.19
2018-03-29T14:55:13.807Z,12.40
2018-03-29T14:57:42.479Z,12.25
2018-03-29T15:00:10.209Z,12.46
2018-03-29T15:02:37.848Z,12.52
2018-03-29T15:05:05.657Z,12.65
2018-03-29T15:07:33.379Z,12.50
2018-03-29T15:10:01.142Z,12.13
2018-03-29T15:12:28.970Z,12.68
2018-03-29T15:14:56.633Z,12.79
2018-03-29T15:17:24.288Z,12.68
2018-03-29T15:19:52.183Z,12.70
2018-03-29T15:22:20.133Z,12.50
2018-03-29T15:24:47.700Z,12.80
2018-03-29T15:27:16.222Z,12.67
2018-03-29T15:29:43.894Z,12.79
2018-03-29T15:32:11.975Z,12.62
2018-03-29T15:34:39.873Z,12.51
2018-03-29T15:37:07.649Z,12.42
2018-03-29T15:39:35.367Z,12.28
2018-03-29T15:42:03.129Z,12.07
2018-03-29T15:44:31.707Z,12.05
2018-03-29T15:46:59.410Z,11.62
2018-03-29T15:49:27.200Z,11.65
2018-03-29T15:51:54.792Z,11.86
2018-03-29T15:54:22.450Z,11.75
2018-03-29T15:56:50.014Z,11.80
2018-03-29T15:59:17.845Z,11.80
2018-03-29T16:01:45.577Z,11.83
2018-03-29T16:04:13.563Z,11.20
2018-03-29T16:06:41.205Z,11.04
2018-03-29T16:09:09.289Z,11.37
2018-03-29T16:11:37.038Z,11.14
2018-03-29T16:14:04.807Z,11.19
2018-03-29T16:16:32.744Z,10.76
2018-03-29T16:19:00.629Z,10.87
2018-03-29T16:21:28.543Z,11.02
2018-03-29T16:23:56.254Z,11.06
2018-03-29T16:26:24.006Z,10.99
2018-03-29T16:28:51.679Z,10.77
2018-03-29T16:31:19.238Z,10.97
2018-03-29T16:33:47.013Z,10.95
2018-03-29T16:36:14.689Z,10.85
2018-03-29T16:38:42.233Z,10.60
2018-03-29T16:41:09.894Z,10.91
2018-03-29T16:43:37.585Z,11.03
2018-03-29T16:46:05.323Z,10.95
2018-03-29T16:48:32.874Z,10.68
2018-03-29T16:51:00.463Z,10.72
2018-03-29T16:53:28.130Z,10.79
2018-03-29T16:55:55.704Z,10.85
2018-03-29T16:58:23.284Z,10.71
2018-03-29T17:00:50.908Z,10.69
2018-03-29T17:03:18.724Z,10.73
2018-03-29T17:05:46.355Z,10.83
2018-03-29T17:08:14.021Z,10.71
2018-03-29T17:10:42.040Z,10.70
2018-03-29T17:13:09.718Z,10.65
2018-03-29T17:15:37.408Z,10.88
2018-03-29T17:18:05.128Z,10.87
2018-03-29T17:20:32.828Z,10.57
2018-03-29T17:23:00.555Z,10.40
2018-03-29T17:25:28.430Z,10.39
2018-03-29T17:27:56.090Z,10.72
2018-03-29T17:30:23.858Z,10.55
2018-03-29T17:32:51.444Z,10.44
2018-03-29T17:35:19.125Z,10.33
2018-03-29T17:37:47.044Z,10.16
2018-03-29T17:40:14.652Z,9.79
2018-03-29T17:42:42.403Z,9.89
2018-03-29T17:45:10.551Z,9.79
2018-03-29T17:47:38.355Z,9.68
2018-03-29T17:50:05.994Z,9.41
2018-03-29T17:52:34.308Z,9.29
2018-03-29T17:55:01.950Z,9.24
2018-03-29T17:57:29.616Z,9.21
2018-03-29T17:59:57.532Z,9.04
2018-03-29T18:02:25.256Z,8.83
2018-03-29T18:04:52.881Z,8.39
2018-03-29T18:07:20.433Z,8.22
2018-03-29T18:09:48.221Z,8.24
2018-03-29T18:12:15.909Z,7.91
2018-03-29T18:14:43.602Z,7.82
2018-03-29T18:17:12.059Z,7.68
2018-03-29T18:19:40.064Z,7.50
2018-03-29T18:22:07.719Z,7.46
2018-03-29T18:24:35.523Z,7.16
2018-03-29T18:27:03.309Z,6.92
2018-03-29T18:29:31.066Z,6.76
2018-03-29T18:31:58.863Z,6.68
2018-03-29T18:34:27.361Z,6.54
2018-03-29T18:36:55.053Z,6.48
2018-03-29T18:39:22.752Z,6.37
2018-03-29T18:41:50.802Z,6.32
2018-03-29T18:44:18.354Z,5.86
2018-03-29T18:46:46.096Z,5.62
2018-03-29T18:49:14.072Z,5.52
2018-03-29T18:51:41.838Z,5.78
2018-03-29T19:04:12.361Z,5.64
2018-03-29T19:06:40.592Z,5.16
2018-03-29T19:09:08.555Z,4.90
2018-03-29T19:11:36.345Z,4.54
2018-03-29T19:14:04.060Z,4.52
2018-03-29T19:16:32.019Z,4.89
2018-03-29T19:19:00.039Z,4.72
2018-03-29T19:21:28.160Z,4.70
2018-03-29T19:23:55.834Z,4.37
2018-03-29T19:26:23.953Z,4.65
2018-03-29T19:28:51.861Z,4.37
2018-03-29T19:31:19.504Z,4.34
2018-03-29T19:33:47.140Z,3.81
2018-03-29T19:36:14.777Z,3.83
2018-03-29T19:38:42.625Z,3.59
2018-03-29T19:41:10.301Z,3.08
2018-03-29T19:43:37.844Z,3.14
2018-03-29T19:46:05.764Z,3.03
2018-03-29T19:48:33.701Z,3.05
2018-03-29T19:51:01.245Z,3.06
2018-03-29T19:53:29.024Z,2.94
2018-03-29T19:55:56.876Z,3.20
2018-03-29T19:58:25.640Z,3.37
2018-03-29T20:00:53.495Z,2.95
2018-03-29T20:03:21.931Z,2.76
2018-03-29T20:05:49.786Z,3.10
2018-03-29T20:08:17.345Z,3.29
2018-03-29T20:10:45.270Z,3.51
2018-03-29T20:13:13.236Z,3.27
2018-03-29T20:15:41.159Z,2.84
2018-03-29T20:18:09.012Z,2.74
2018-03-29T20:20:36.836Z,3.06
2018-03-29T20:23:04.521Z,2.97
2018-03-29T20:25:33.171Z,3.22
2018-03-29T20:28:01.117Z,3.01
2018-03-29T20:30:29.176Z,3.25
2018-03-29T20:32:56.752Z,3.64
2018-03-29T20:35:24.497Z,3.39
2018-03-29T20:37:52.291Z,3.44
2018-03-29T20:40:20.275Z,3.39
2018-03-29T20:42:48.036Z,3.12
2018-03-29T20:45:15.962Z,3.11
2018-03-29T20:47:44.051Z,3.33
2018-03-29T20:50:12.723Z,3.13
2018-03-29T20:52:40.690Z,3.03
2018-03-29T20:55:08.575Z,3.05
2018-03-29T20:57:36.347Z,2.62
2018-03-29T21:00:04.270Z,2.60
2018-03-29T21:02:32.027Z,2.92
2018-03-29T21:05:00.473Z,2.88
2018-03-29T21:07:28.333Z,2.81
2018-03-29T21:09:56.608Z,3.16
2018-03-29T21:12:24.381Z,2.97
2018-03-29T21:14:53.005Z,2.66
2018-03-29T21:17:21.254Z,2.49
2018-03-29T21:19:48.980Z,1.97
2018-03-29T21:22:16.668Z,1.95
2018-03-29T21:24:44.511Z,2.03
2018-03-29T21:27:13.125Z,1.89
2018-03-29T21:29:41.056Z,2.28
2018-03-29T21:32:09.087Z,2.21
2018-03-29T21:34:37.401Z,2.32
2018-03-29T21:37:05.935Z,2.29
2018-03-29T21:39:33.893Z,1.68
2018-03-29T21:42:01.801Z,1.71
2018-03-29T21:44:29.825Z,1.31
2018-03-29T21:46:57.836Z,1.38
2018-03-29T21:49:26.113Z,1.33
2018-03-29T21:51:53.980Z,1.55
2018-03-29T21:54:21.863Z,1.41
2018-03-29T21:56:50.037Z,1.24
2018-03-29T21:59:18.659Z,1.69
2018-03-29T22:01:46.655Z,1.56
2018-03-29T22:04:14.500Z,1.70
2018-03-29T22:06:42.340Z,1.67
2018-03-29T22:09:10.455Z,1.35
2018-03-29T22:11:38.350Z,0.97
2018-03-29T22:14:06.461Z,1.43
2018-03-29T22:16:34.268Z,1.49
2018-03-29T22:19:02.452Z,1.31
2018-03-29T22:21:30.182Z,1.11
2018-03-29T22:23:58.043Z,0.94
2018-03-29T22:26:25.840Z,1.03
2018-03-29T22:28:54.705Z,1.21
2018-03-29T22:31:23.276Z,0.73
2018-03-29T22:33:51.252Z,0.49
2018-03-29T22:36:19.389Z,0.51
2018-03-29T22:38:47.607Z,0.60
2018-03-29T22:41:15.710Z,0.57
2018-03-29T22:43:43.721Z,0.87
2018-03-29T22:46:11.792Z,0.98
2018-03-29T22:48:39.557Z,0.99
2018-03-29T22:51:07.079Z,0.76
2018-03-29T22:53:35.006Z,0.98
2018-03-29T22:56:03.171Z,0.88
2018-03-29T22:58:31.426Z,0.93
2018-03-29T23:00:59.402Z,0.79
2018-03-29T23:03:27.172Z,0.86
2018-03-29T23:05:54.929Z,0.80
2018-03-29T23:08:22.627Z,0.98
2018-03-29T23:10:50.766Z,0.66
2018-03-29T23:13:18.917Z,0.57
2018-03-29T23:15:46.881Z,0.49
2018-03-29T23:18:14.611Z,0.75
2018-03-29T23:20:42.341Z,0.80
2018-03-29T23:23:10.096Z,0.79
2018-03-29T23:25:37.820Z,0.63
2018-03-29T23:28:05.581Z,0.66
2018-03-29T23:30:34.086Z,0.48
2018-03-29T23:33:01.701Z,0.04
2018-03-29T23:35:30.323Z,-0.17
2018-03-29T23:37:58.091Z,-0.07
2018-03-29T23:40:26.772Z,0.11
2018-03-29T23:42:54.386Z,0.12
2018-03-29T23:45:22.270Z,-0.13
2018-03-29T23:47:50.371Z,0.05
2018-03-29T23:50:18.023Z,0.37
2018-03-29T23:52:45.946Z,0.08
2018-03-29T23:55:13.645Z,-0.43
2018-03-29T23:57:41.315Z,-0.51
